Decoded Metar for RCMQ (CHINGCHUAKANG in TAIWAN) (IATA:N/A) | Meteo·Mobile Aviation Weather
aviador You're here:

RCMQ Decoded Metar

CHINGCHUAKANG in TAIWAN
Report Time2018-08-17 14:00:00
UTC Time2018-08-17 14:38:20
Flight Rules vfr VFR
Wind230° at 07 kt
W.Decomp.*RWY 18: 4.2 kt HW 5.6 kt RCW
W.Rank230° ranks 17
Current wind is above 230° avg. (6.9)
Visibility9999 m
Phenomena:N/A
Clouds:Few 012 Hf
Broken 050 Hf
Expected CloudBase > 1,600 ft AGL from Temp-Dew spread
Ceiling5,000 ft
Temp28°C (ISA +13)
Dew Point24°C (79% RH)
Heat Index31.9°C
QNH1003 hPa
Density Alt2,244 ft
Elevation16 ft
Report Wrong Elevation
Raw Report
RCMQ 171400Z 23007KT 9999 FEW012 BKN050 28/24 Q1003 NOSIG RMK
A2963=

Extra information for RCMQ:More info

Metar Taf Metar & Taf Last 4 Metars F.Rules Stats Wind Profile Meteogram Temp Stats Airport Information Weather charts Add Link Nearby VenuesMetar ALERT Operation Metar Decoded Social comments